Time;durP1;ratioP1;P1;durP2;ratioP2;P2;SDS_P1;SDS_P2;PMS_P1;PMS_P2;Temp;Humidity;BMP_temperature;BMP_pressure;BME280_temperature;BME280_humidity;BME280_pressure;Samples;Min_cycle;Max_cycle;Signal;HPM_P1;HPM_P2
2022/03/09 00:02:18;;;;;;;37.80;23.17;;;;;;;;;;5054178;28;20239;-45
2022/03/09 00:04:45;;;;;;;39.80;23.03;;;;;;;;;;5054581;28;20291;-45
2022/03/09 00:07:12;;;;;;;33.70;22.27;;;;;;;;;;5054457;28;20246;-45
2022/03/09 00:09:39;;;;;;;38.17;21.77;;;;;;;;;;5054356;28;20200;-47
2022/03/09 00:12:07;;;;;;;35.50;22.07;;;;;;;;;;5054308;28;20230;-45
2022/03/09 00:14:34;;;;;;;36.97;21.90;;;;;;;;;;5054708;28;20223;-45
2022/03/09 00:17:01;;;;;;;41.30;24.23;;;;;;;;;;5054367;28;20677;-45
2022/03/09 00:19:28;;;;;;;51.13;26.27;;;;;;;;;;5054407;28;20627;-45
2022/03/09 00:21:56;;;;;;;46.90;26.20;;;;;;;;;;5054437;28;20224;-45
2022/03/09 00:24:23;;;;;;;40.37;24.83;;;;;;;;;;5054200;28;20207;-45
2022/03/09 00:26:50;;;;;;;66.47;31.77;;;;;;;;;;5054318;28;20243;-45
2022/03/09 00:29:17;;;;;;;35.00;20.33;;;;;;;;;;5036786;28;20200;-45
2022/03/09 00:31:44;;;;;;;38.63;21.30;;;;;;;;;;5054490;28;20200;-45
2022/03/09 00:34:11;;;;;;;40.47;22.37;;;;;;;;;;5054412;28;20204;-46
2022/03/09 00:36:39;;;;;;;41.17;22.60;;;;;;;;;;5054422;28;20567;-45
2022/03/09 00:39:06;;;;;;;40.33;22.57;;;;;;;;;;5054399;28;20253;-45
2022/03/09 00:41:33;;;;;;;25.47;16.37;;;;;;;;;;5054401;28;20568;-44
2022/03/09 00:44:00;;;;;;;19.67;10.23;;;;;;;;;;5054058;28;20232;-45
2022/03/09 00:46:27;;;;;;;12.70;8.03;;;;;;;;;;5054295;28;20214;-45
2022/03/09 00:48:54;;;;;;;16.63;9.60;;;;;;;;;;5054445;28;20258;-46
2022/03/09 00:51:22;;;;;;;14.60;8.73;;;;;;;;;;5054831;28;20292;-46
2022/03/09 00:53:50;;;;;;;57.00;18.20;;;;;;;;;;5057866;28;20498;-45
2022/03/09 00:56:18;;;;;;;22.50;10.00;;;;;;;;;;5058035;28;20200;-45
2022/03/09 00:58:46;;;;;;;16.90;8.03;;;;;;;;;;5040673;28;20246;-46
2022/03/09 01:01:14;;;;;;;280.73;108.40;;;;;;;;;;5057522;28;20653;-46
2022/03/09 01:03:41;;;;;;;21.10;13.93;;;;;;;;;;5057804;28;20633;-46
2022/03/09 01:06:09;;;;;;;14.80;10.00;;;;;;;;;;5057809;28;20257;-47
2022/03/09 01:08:36;;;;;;;12.83;8.50;;;;;;;;;;5057344;28;20739;-47
2022/03/09 01:11:03;;;;;;;15.73;10.17;;;;;;;;;;5057524;28;20231;-46
2022/03/09 01:13:30;;;;;;;14.77;8.97;;;;;;;;;;5057395;28;20233;-46
2022/03/09 01:15:57;;;;;;;15.23;9.13;;;;;;;;;;5057475;28;20288;-46
2022/03/09 01:18:24;;;;;;;36.20;12.17;;;;;;;;;;5057324;28;20210;-47
2022/03/09 01:20:53;;;;;;;21.03;9.83;;;;;;;;;;5057454;28;20227;-46
2022/03/09 01:23:20;;;;;;;15.17;7.97;;;;;;;;;;5057537;28;20216;-46
2022/03/09 01:25:47;;;;;;;54.53;29.97;;;;;;;;;;5057453;28;20618;-46
2022/03/09 01:28:14;;;;;;;15.13;9.37;;;;;;;;;;5057071;28;20262;-47
2022/03/09 01:30:41;;;;;;;16.23;12.13;;;;;;;;;;5057422;28;20230;-46
2022/03/09 01:33:09;;;;;;;17.83;11.60;;;;;;;;;;5057007;28;20228;-46
2022/03/09 01:35:36;;;;;;;24.93;13.57;;;;;;;;;;5056957;28;20212;-47
2022/03/09 01:38:03;;;;;;;17.50;12.17;;;;;;;;;;5057005;28;20232;-48
2022/03/09 01:40:30;;;;;;;21.57;10.33;;;;;;;;;;5056927;28;20200;-46
2022/03/09 01:42:57;;;;;;;83.77;24.70;;;;;;;;;;5039994;28;20238;-45
2022/03/09 01:45:25;;;;;;;61.07;19.90;;;;;;;;;;5056985;28;20227;-50
2022/03/09 01:47:53;;;;;;;19.77;9.20;;;;;;;;;;5056926;28;20289;-46
2022/03/09 01:50:20;;;;;;;20.67;14.60;;;;;;;;;;5057016;28;20235;-48
2022/03/09 01:52:47;;;;;;;16.80;9.67;;;;;;;;;;5039569;28;20643;-46
2022/03/09 01:55:14;;;;;;;13.10;9.87;;;;;;;;;;5056952;28;20200;-47
2022/03/09 01:57:41;;;;;;;12.17;7.80;;;;;;;;;;5056847;28;20273;-48
2022/03/09 02:00:09;;;;;;;17.63;9.03;;;;;;;;;;5056588;28;20204;-46
2022/03/09 02:02:36;;;;;;;18.03;8.27;;;;;;;;;;5038417;28;20238;-46
2022/03/09 02:05:04;;;;;;;19.87;8.77;;;;;;;;;;5056025;28;20296;-46
2022/03/09 02:10:20;;;;;;;21.90;14.97;;;;;;;;;;5056947;28;20246;-45
2022/03/09 02:12:48;;;;;;;15.50;10.87;;;;;;;;;;5056309;28;20258;-46
2022/03/09 02:15:15;;;;;;;15.17;9.30;;;;;;;;;;5056330;28;20235;-47
2022/03/09 02:17:42;;;;;;;37.53;13.33;;;;;;;;;;5056288;28;20290;-46
2022/03/09 02:20:09;;;;;;;22.17;9.77;;;;;;;;;;5056149;28;20563;-46
2022/03/09 02:22:40;;;;;;;17.30;8.33;;;;;;;;;;5056374;28;20232;-46
2022/03/09 02:25:13;;;;;;;11.67;7.13;;;;;;;;;;5056057;28;20201;-47
2022/03/09 02:27:42;;;;;;;11.33;6.33;;;;;;;;;;5055981;28;20281;-47
2022/03/09 02:30:13;;;;;;;152.70;65.70;;;;;;;;;;5056433;28;20204;-46
2022/03/09 02:32:46;;;;;;;36.37;18.80;;;;;;;;;;5056153;28;20200;-46
2022/03/09 02:35:15;;;;;;;16.80;9.60;;;;;;;;;;5056292;28;20287;-46
2022/03/09 02:37:42;;;;;;;12.17;8.67;;;;;;;;;;5056030;28;20204;-48
2022/03/09 02:40:14;;;;;;;13.00;9.53;;;;;;;;;;5056005;28;20293;-46
2022/03/09 02:42:41;;;;;;;55.93;20.20;;;;;;;;;;5055684;28;20235;-46
2022/03/09 02:45:09;;;;;;;38.60;13.83;;;;;;;;;;5055785;28;20204;-46
2022/03/09 02:47:43;;;;;;;20.27;9.33;;;;;;;;;;5056192;28;20369;-46
2022/03/09 02:50:13;;;;;;;17.93;7.73;;;;;;;;;;5055616;28;20531;-46
2022/03/09 02:52:41;;;;;;;70.63;38.53;;;;;;;;;;5055519;28;20592;-47
2022/03/09 02:55:09;;;;;;;20.97;12.93;;;;;;;;;;5055428;28;20234;-47
2022/03/09 02:57:36;;;;;;;15.60;10.57;;;;;;;;;;5055695;28;20254;-46
2022/03/09 03:00:04;;;;;;;16.17;8.93;;;;;;;;;;5055514;28;20228;-46
2022/03/09 03:02:31;;;;;;;18.67;8.13;;;;;;;;;;5055344;28;20255;-46
2022/03/09 03:04:59;;;;;;;48.90;17.50;;;;;;;;;;5055492;28;20232;-46
2022/03/09 03:07:26;;;;;;;77.30;20.70;;;;;;;;;;5055123;28;20287;-46
2022/03/09 03:09:53;;;;;;;35.07;12.83;;;;;;;;;;5055226;28;20258;-46
2022/03/09 03:12:20;;;;;;;17.10;8.60;;;;;;;;;;5055161;28;20247;-47
2022/03/09 03:14:47;;;;;;;11.87;7.60;;;;;;;;;;5055080;28;20299;-46
2022/03/09 03:17:14;;;;;;;16.93;12.07;;;;;;;;;;5055187;28;20195;-46
2022/03/09 03:19:43;;;;;;;16.63;11.03;;;;;;;;;;5054997;28;20642;-46
2022/03/09 03:22:10;;;;;;;12.93;9.43;;;;;;;;;;5055422;28;20570;-46
2022/03/09 03:24:37;;;;;;;16.87;9.70;;;;;;;;;;5055424;28;20621;-46
2022/03/09 03:27:04;;;;;;;16.43;10.37;;;;;;;;;;5055219;28;20223;-46
2022/03/09 03:29:31;;;;;;;20.90;12.67;;;;;;;;;;5054977;28;20262;-46
2022/03/09 03:31:58;;;;;;;41.03;12.87;;;;;;;;;;5054877;28;20208;-46
2022/03/09 03:34:25;;;;;;;33.57;12.30;;;;;;;;;;5054990;28;20234;-48
2022/03/09 03:36:53;;;;;;;17.77;8.30;;;;;;;;;;5055076;28;20259;-46
2022/03/09 03:39:20;;;;;;;11.77;6.83;;;;;;;;;;5054691;28;20536;-46
2022/03/09 03:41:47;;;;;;;47.97;25.40;;;;;;;;;;5055030;28;20200;-47
2022/03/09 03:44:14;;;;;;;22.93;15.90;;;;;;;;;;5054630;28;20536;-49
2022/03/09 03:46:41;;;;;;;14.23;10.17;;;;;;;;;;5054963;28;20199;-47
2022/03/09 03:49:08;;;;;;;14.23;8.93;;;;;;;;;;5054534;28;20258;-46
2022/03/09 03:51:35;;;;;;;16.40;10.83;;;;;;;;;;5054935;28;20200;-46
2022/03/09 03:54:02;;;;;;;16.03;9.33;;;;;;;;;;5054690;28;20239;-45
2022/03/09 03:56:30;;;;;;;40.03;14.50;;;;;;;;;;5054494;28;20219;-46
2022/03/09 03:58:58;;;;;;;35.67;13.17;;;;;;;;;;5054753;28;20208;-47
2022/03/09 04:01:25;;;;;;;16.27;8.30;;;;;;;;;;5054428;28;20214;-46
2022/03/09 04:03:53;;;;;;;13.73;7.37;;;;;;;;;;5055363;28;20642;-46
2022/03/09 04:06:25;;;;;;;32.73;21.13;;;;;;;;;;5054515;28;20698;-46
2022/03/09 04:08:52;;;;;;;33.63;21.10;;;;;;;;;;5054704;28;20580;-45
2022/03/09 04:11:20;;;;;;;16.50;11.77;;;;;;;;;;5054501;28;20231;-46
2022/03/09 04:13:47;;;;;;;21.17;14.57;;;;;;;;;;5054375;28;20606;-46
2022/03/09 04:16:14;;;;;;;17.03;10.27;;;;;;;;;;5054647;28;20206;-46
2022/03/09 04:18:41;;;;;;;46.20;19.00;;;;;;;;;;5054847;28;20232;-46
2022/03/09 04:21:08;;;;;;;60.97;20.13;;;;;;;;;;5054171;28;20647;-46
2022/03/09 04:23:35;;;;;;;35.80;12.43;;;;;;;;;;5054468;28;20224;-47
2022/03/09 04:26:08;;;;;;;16.70;8.17;;;;;;;;;;5054827;28;20188;-46
2022/03/09 04:28:35;;;;;;;25.60;15.43;;;;;;;;;;5058351;28;20230;-46
2022/03/09 04:31:03;;;;;;;25.63;15.57;;;;;;;;;;5058548;28;20223;-47
2022/03/09 04:33:30;;;;;;;15.80;10.70;;;;;;;;;;5058366;28;20246;-46
2022/03/09 04:35:58;;;;;;;11.33;8.23;;;;;;;;;;5058084;28;20215;-48
2022/03/09 04:38:26;;;;;;;15.13;8.60;;;;;;;;;;5058122;28;20211;-46
2022/03/09 04:40:53;;;;;;;11.73;7.40;;;;;;;;;;5057773;28;20257;-46
2022/03/09 04:43:20;;;;;;;13.00;8.43;;;;;;;;;;5057732;28;20216;-46
2022/03/09 04:45:47;;;;;;;41.60;16.23;;;;;;;;;;5057900;28;20204;-47
2022/03/09 04:48:15;;;;;;;16.87;9.37;;;;;;;;;;5057818;28;20628;-47
2022/03/09 04:50:42;;;;;;;13.23;8.23;;;;;;;;;;5057631;28;20713;-47
2022/03/09 04:53:09;;;;;;;35.60;20.63;;;;;;;;;;5057640;28;20661;-46
2022/03/09 04:55:36;;;;;;;20.37;14.07;;;;;;;;;;5057481;28;20207;-46
2022/03/09 04:58:04;;;;;;;16.07;11.60;;;;;;;;;;5057500;28;20203;-46
2022/03/09 05:00:31;;;;;;;15.80;10.53;;;;;;;;;;5057419;28;20200;-46
2022/03/09 05:02:58;;;;;;;15.70;11.37;;;;;;;;;;5053846;28;20311;-46
2022/03/09 05:05:25;;;;;;;13.97;7.97;;;;;;;;;;5068911;28;20231;-49
2022/03/09 05:07:53;;;;;;;13.47;9.47;;;;;;;;;;5076138;28;20259;-46
2022/03/09 05:10:20;;;;;;;17.73;11.27;;;;;;;;;;5076380;28;20247;-48
2022/03/09 05:12:47;;;;;;;28.27;13.83;;;;;;;;;;5075991;28;20219;-47
2022/03/09 05:15:14;;;;;;;26.27;12.73;;;;;;;;;;5076362;28;20561;-45
2022/03/09 05:17:43;;;;;;;16.77;8.63;;;;;;;;;;5074933;28;20338;-47
2022/03/09 05:20:11;;;;;;;20.13;13.73;;;;;;;;;;5076687;28;20297;-47
2022/03/09 05:22:38;;;;;;;14.33;8.93;;;;;;;;;;5075516;28;20227;-48
2022/03/09 05:25:06;;;;;;;17.67;10.70;;;;;;;;;;5058958;28;20219;-46
2022/03/09 05:27:37;;;;;;;19.90;13.83;;;;;;;;;;5076110;28;20266;-47
2022/03/09 05:30:04;;;;;;;33.10;17.93;;;;;;;;;;5076546;28;20245;-47
2022/03/09 05:32:32;;;;;;;66.77;19.27;;;;;;;;;;5075648;28;20751;-46
2022/03/09 05:34:59;;;;;;;36.90;12.33;;;;;;;;;;5075481;28;20234;-46
2022/03/09 05:37:28;;;;;;;24.40;9.93;;;;;;;;;;5075447;28;20253;-47
2022/03/09 05:39:55;;;;;;;22.57;8.43;;;;;;;;;;5068246;28;20220;-47
2022/03/09 05:42:23;;;;;;;27.70;11.70;;;;;;;;;;5069500;28;20250;-46
2022/03/09 05:44:50;;;;;;;70.53;52.93;;;;;;;;;;5074982;28;20246;-47
2022/03/09 05:47:37;;;;;;;23.47;13.87;;;;;;;;;;5074234;28;20701;-47
2022/03/09 05:50:05;;;;;;;41.07;14.60;;;;;;;;;;5075325;28;20599;-46
2022/03/09 05:52:32;;;;;;;21.13;8.70;;;;;;;;;;5074583;28;20254;-46
2022/03/09 05:55:00;;;;;;;17.87;8.63;;;;;;;;;;5074846;28;20261;-46
2022/03/09 05:57:27;;;;;;;16.80;8.70;;;;;;;;;;5075642;28;20314;-46
2022/03/09 05:59:54;;;;;;;17.47;9.10;;;;;;;;;;5075642;28;20250;-45
2022/03/09 06:02:21;;;;;;;36.73;15.43;;;;;;;;;;5074744;28;20270;-46
2022/03/09 06:04:49;;;;;;;582.00;324.33;;;;;;;;;;5075248;28;20247;-46
2022/03/09 06:07:16;;;;;;;331.20;182.60;;;;;;;;;;5076026;28;20227;-46
2022/03/09 06:09:44;;;;;;;235.13;125.30;;;;;;;;;;5075267;28;20246;-45
2022/03/09 06:12:12;;;;;;;310.57;184.13;;;;;;;;;;5055616;28;20651;-46
2022/03/09 06:14:38;;;;;;;108.63;59.47;;;;;;;;;;5054863;28;20631;-46
2022/03/09 06:17:06;;;;;;;42.00;20.03;;;;;;;;;;5055041;28;20603;-46
2022/03/09 06:19:33;;;;;;;34.70;16.37;;;;;;;;;;5068955;28;20224;-46
2022/03/09 06:22:00;;;;;;;31.03;14.63;;;;;;;;;;5074185;28;20223;-47
2022/03/09 06:24:27;;;;;;;51.10;21.90;;;;;;;;;;5073731;28;20285;-48
2022/03/09 06:26:55;;;;;;;75.80;46.37;;;;;;;;;;5074220;28;20550;-48
2022/03/09 06:29:22;;;;;;;76.80;32.67;;;;;;;;;;5067958;28;20234;-49
2022/03/09 06:31:49;;;;;;;80.73;27.63;;;;;;;;;;5073488;28;20242;-48
2022/03/09 06:34:17;;;;;;;265.30;88.77;;;;;;;;;;5073584;28;20330;-47
2022/03/09 06:36:45;;;;;;;166.70;58.50;;;;;;;;;;5074089;28;20300;-48
2022/03/09 06:39:13;;;;;;;155.60;56.83;;;;;;;;;;5073600;28;20223;-46
2022/03/09 06:41:41;;;;;;;112.10;38.57;;;;;;;;;;5074061;28;20262;-46
2022/03/09 06:44:08;;;;;;;65.53;26.10;;;;;;;;;;5056332;28;20222;-45
2022/03/09 06:46:35;;;;;;;58.77;20.10;;;;;;;;;;5072874;28;20261;-47
2022/03/09 06:49:02;;;;;;;77.93;35.23;;;;;;;;;;5070245;28;20219;-46
2022/03/09 06:51:30;;;;;;;45.10;31.03;;;;;;;;;;5072746;28;20250;-46
2022/03/09 06:53:57;;;;;;;90.40;23.47;;;;;;;;;;5071800;28;20259;-50
2022/03/09 06:56:25;;;;;;;87.20;28.93;;;;;;;;;;5071824;28;20262;-52
2022/03/09 06:58:52;;;;;;;36.60;14.60;;;;;;;;;;5072168;28;20255;-48
2022/03/09 07:01:20;;;;;;;30.53;13.07;;;;;;;;;;5072735;28;20219;-50
2022/03/09 07:03:47;;;;;;;22.93;10.53;;;;;;;;;;5070288;28;20249;-48
2022/03/09 07:06:14;;;;;;;31.57;12.47;;;;;;;;;;5073185;28;20285;-50
2022/03/09 07:08:41;;;;;;;30.87;12.03;;;;;;;;;;5072587;28;20227;-45
2022/03/09 07:11:09;;;;;;;93.37;37.77;;;;;;;;;;5070970;28;20365;-48
2022/03/09 07:13:36;;;;;;;44.37;31.27;;;;;;;;;;5072951;28;20310;-46
2022/03/09 07:16:04;;;;;;;71.97;21.53;;;;;;;;;;5073240;28;20649;-49
2022/03/09 07:18:33;;;;;;;64.00;20.47;;;;;;;;;;5071700;28;20235;-47
2022/03/09 07:21:00;;;;;;;37.57;17.77;;;;;;;;;;5072206;28;20293;-47
2022/03/09 07:23:27;;;;;;;40.63;15.53;;;;;;;;;;5072438;28;20257;-48
2022/03/09 07:25:54;;;;;;;22.30;11.30;;;;;;;;;;5072128;28;20219;-50
2022/03/09 07:28:22;;;;;;;26.70;13.93;;;;;;;;;;5072877;28;20281;-49
2022/03/09 07:30:49;;;;;;;35.27;14.23;;;;;;;;;;5072187;28;20218;-47
2022/03/09 07:33:16;;;;;;;148.47;133.27;;;;;;;;;;5076280;28;20197;-48
2022/03/09 07:35:47;;;;;;;56.23;43.67;;;;;;;;;;5074374;28;20231;-47
2022/03/09 07:38:14;;;;;;;89.07;25.93;;;;;;;;;;5074874;28;20184;-48
2022/03/09 07:40:43;;;;;;;42.90;15.80;;;;;;;;;;5069750;28;20214;-47
2022/03/09 07:43:27;;;;;;;28.97;12.13;;;;;;;;;;5074493;28;20203;-48
2022/03/09 07:45:54;;;;;;;19.90;10.40;;;;;;;;;;5072342;28;20611;-48
2022/03/09 07:48:22;;;;;;;22.03;11.07;;;;;;;;;;5071266;28;20272;-48
2022/03/09 07:50:49;;;;;;;17.17;9.87;;;;;;;;;;5073430;28;20674;-50
2022/03/09 07:53:16;;;;;;;24.40;11.67;;;;;;;;;;5070802;28;20195;-45
2022/03/09 07:55:44;;;;;;;35.33;26.63;;;;;;;;;;5073247;28;20249;-46
2022/03/09 07:58:11;;;;;;;25.83;21.07;;;;;;;;;;5073358;28;20294;-48
2022/03/09 08:00:38;;;;;;;59.73;17.57;;;;;;;;;;5070191;28;20290;-47
2022/03/09 08:03:05;;;;;;;32.90;12.40;;;;;;;;;;5070919;28;20333;-47
2022/03/09 08:05:52;;;;;;;19.07;9.33;;;;;;;;;;5073010;28;20222;-45
2022/03/09 08:08:19;;;;;;;21.87;10.23;;;;;;;;;;5051774;28;20195;-46
2022/03/09 08:10:46;;;;;;;18.07;10.33;;;;;;;;;;5073985;28;20290;-47
2022/03/09 08:13:13;;;;;;;22.53;11.30;;;;;;;;;;5073894;28;20653;-48
2022/03/09 08:15:41;;;;;;;28.80;11.87;;;;;;;;;;5073978;28;20366;-48
2022/03/09 08:18:09;;;;;;;41.00;25.87;;;;;;;;;;5074152;28;20218;-49
2022/03/09 08:20:37;;;;;;;33.07;23.90;;;;;;;;;;5074308;28;20598;-48
2022/03/09 08:23:04;;;;;;;30.23;11.87;;;;;;;;;;5071286;28;20207;-47
2022/03/09 08:25:31;;;;;;;33.73;13.07;;;;;;;;;;5073953;28;20203;-49
2022/03/09 08:28:00;;;;;;;27.73;13.07;;;;;;;;;;5073835;28;20207;-47
2022/03/09 08:30:28;;;;;;;21.33;10.87;;;;;;;;;;5074266;28;20313;-47
2022/03/09 08:32:55;;;;;;;15.00;9.33;;;;;;;;;;5074145;28;20272;-46
2022/03/09 08:35:27;;;;;;;19.70;10.17;;;;;;;;;;5064298;28;20236;-47
2022/03/09 08:37:54;;;;;;;19.27;9.83;;;;;;;;;;5068028;28;20215;-48
2022/03/09 08:40:22;;;;;;;58.43;29.67;;;;;;;;;;5072535;28;20257;-46
2022/03/09 08:42:49;;;;;;;49.87;41.37;;;;;;;;;;5073292;28;20219;-47
2022/03/09 08:45:18;;;;;;;52.93;17.20;;;;;;;;;;5072381;28;20615;-48
2022/03/09 08:47:46;;;;;;;46.80;15.33;;;;;;;;;;5071088;28;20722;-46
2022/03/09 08:50:13;;;;;;;36.63;13.93;;;;;;;;;;5071672;28;20708;-49
2022/03/09 08:53:00;;;;;;;30.40;11.50;;;;;;;;;;5072841;28;20215;-46
2022/03/09 08:55:28;;;;;;;22.00;10.70;;;;;;;;;;5072195;28;20223;-47
2022/03/09 08:57:55;;;;;;;20.93;10.20;;;;;;;;;;5072914;28;20215;-48
2022/03/09 09:00:23;;;;;;;19.23;9.47;;;;;;;;;;5071962;28;20219;-47
2022/03/09 09:02:51;;;;;;;48.47;20.97;;;;;;;;;;5072851;28;20678;-46
2022/03/09 09:05:19;;;;;;;39.53;35.63;;;;;;;;;;5071355;28;20220;-50
2022/03/09 09:07:47;;;;;;;49.37;18.53;;;;;;;;;;5072643;28;20692;-47
2022/03/09 09:10:16;;;;;;;65.03;17.13;;;;;;;;;;5072342;28;20258;-50
2022/03/09 09:12:46;;;;;;;37.13;14.00;;;;;;;;;;5073323;28;20328;-48
2022/03/09 09:15:14;;;;;;;21.77;10.60;;;;;;;;;;5076079;28;20242;-47
2022/03/09 09:17:41;;;;;;;19.17;9.73;;;;;;;;;;5076017;28;20219;-46
2022/03/09 09:20:27;;;;;;;11.93;7.70;;;;;;;;;;5074928;28;20227;-50
2022/03/09 09:22:55;;;;;;;17.90;9.03;;;;;;;;;;5076349;28;20223;-47
2022/03/09 09:25:38;;;;;;;169.40;80.07;;;;;;;;;;5073442;28;20219;-47
2022/03/09 09:28:06;;;;;;;26.37;20.47;;;;;;;;;;5076037;28;20222;-47
2022/03/09 09:30:34;;;;;;;29.50;14.37;;;;;;;;;;5075203;28;20313;-48
2022/03/09 09:33:01;;;;;;;41.80;13.73;;;;;;;;;;5075962;28;20223;-46
2022/03/09 09:35:29;;;;;;;22.63;10.40;;;;;;;;;;5075268;28;20682;-47
2022/03/09 09:38:09;;;;;;;15.87;9.13;;;;;;;;;;5074181;28;20210;-48
2022/03/09 09:40:43;;;;;;;14.97;8.83;;;;;;;;;;5074086;28;20693;-48
2022/03/09 09:43:15;;;;;;;16.23;9.07;;;;;;;;;;5073919;28;20308;-47
2022/03/09 09:45:42;;;;;;;17.77;9.77;;;;;;;;;;5073212;28;20219;-46
2022/03/09 09:48:10;;;;;;;82.90;34.43;;;;;;;;;;5075887;28;20243;-46
2022/03/09 09:50:40;;;;;;;35.43;32.13;;;;;;;;;;5072703;28;20235;-47
2022/03/09 09:53:10;;;;;;;46.80;19.90;;;;;;;;;;5075273;28;20211;-49
2022/03/09 09:55:38;;;;;;;33.90;13.57;;;;;;;;;;5073259;28;20662;-48
2022/03/09 09:58:05;;;;;;;41.80;15.30;;;;;;;;;;5075317;28;20222;-47
2022/03/09 10:00:34;;;;;;;21.83;10.80;;;;;;;;;;5075220;28;20230;-48
2022/03/09 10:03:02;;;;;;;15.87;9.17;;;;;;;;;;5074954;28;20335;-49
2022/03/09 10:05:29;;;;;;;17.23;9.83;;;;;;;;;;5057601;28;20246;-53
2022/03/09 10:08:05;;;;;;;26.93;13.30;;;;;;;;;;5075068;28;20319;-48
2022/03/09 10:10:38;;;;;;;40.30;15.30;;;;;;;;;;5075462;28;20317;-47
2022/03/09 10:13:28;;;;;;;28.73;20.67;;;;;;;;;;5075146;28;20293;-47
2022/03/09 10:16:20;;;;;;;40.67;16.33;;;;;;;;;;5071813;28;20661;-48
2022/03/09 10:18:55;;;;;;;40.50;15.60;;;;;;;;;;5073980;28;20215;-47
2022/03/09 10:21:26;;;;;;;34.60;13.23;;;;;;;;;;5073298;28;20231;-49
2022/03/09 10:23:56;;;;;;;21.53;12.23;;;;;;;;;;5075103;28;20257;-49
2022/03/09 10:26:47;;;;;;;22.77;12.67;;;;;;;;;;5058206;28;20665;-47
2022/03/09 10:29:17;;;;;;;15.73;9.40;;;;;;;;;;5075588;28;20211;-47
2022/03/09 10:31:47;;;;;;;20.97;10.93;;;;;;;;;;5075516;28;20606;-48
2022/03/09 10:34:24;;;;;;;88.87;41.70;;;;;;;;;;5072921;28;20191;-47
2022/03/09 10:36:56;;;;;;;37.50;30.50;;;;;;;;;;5075457;28;20198;-47
2022/03/09 10:39:26;;;;;;;64.03;21.67;;;;;;;;;;5073588;28;20183;-47
2022/03/09 10:41:53;;;;;;;41.47;15.70;;;;;;;;;;5075209;28;20295;-47
2022/03/09 10:44:41;;;;;;;22.37;11.47;;;;;;;;;;5075243;28;20211;-47
2022/03/09 10:47:08;;;;;;;20.20;11.73;;;;;;;;;;5073982;28;20202;-48
2022/03/09 10:49:35;;;;;;;30.73;16.90;;;;;;;;;;5074237;28;20285;-48
2022/03/09 10:52:03;;;;;;;363.03;146.00;;;;;;;;;;5074164;28;20565;-47
2022/03/09 10:54:35;;;;;;;158.53;71.20;;;;;;;;;;5073649;28;20203;-49
2022/03/09 10:57:09;;;;;;;147.73;66.77;;;;;;;;;;5067620;28;20292;-47
2022/03/09 10:59:46;;;;;;;90.73;52.40;;;;;;;;;;5072935;28;20290;-47
2022/03/09 11:02:19;;;;;;;118.67;36.33;;;;;;;;;;5070162;28;20230;-48
2022/03/09 11:05:10;;;;;;;68.37;22.80;;;;;;;;;;5073417;28;20261;-48
2022/03/09 11:07:38;;;;;;;56.57;21.43;;;;;;;;;;5072971;28;20230;-47
2022/03/09 11:10:12;;;;;;;39.37;15.17;;;;;;;;;;5072700;28;20313;-48
2022/03/09 11:12:39;;;;;;;29.60;14.30;;;;;;;;;;5072439;28;20222;-46
2022/03/09 11:15:07;;;;;;;40.90;17.10;;;;;;;;;;5073245;28;20223;-48
2022/03/09 11:17:35;;;;;;;43.33;18.17;;;;;;;;;;5055149;28;20222;-46
2022/03/09 11:20:03;;;;;;;106.23;51.80;;;;;;;;;;5072819;28;20249;-47
2022/03/09 11:22:30;;;;;;;67.63;47.13;;;;;;;;;;5073431;28;20228;-46
2022/03/09 11:24:58;;;;;;;123.57;39.60;;;;;;;;;;5073997;28;20250;-46
2022/03/09 11:27:25;;;;;;;268.57;74.03;;;;;;;;;;5072916;28;20238;-46
2022/03/09 11:29:55;;;;;;;263.30;71.27;;;;;;;;;;5056763;28;20223;-46
2022/03/09 11:32:35;;;;;;;553.43;171.03;;;;;;;;;;5056633;28;20701;-46
2022/03/09 11:35:05;;;;;;;417.50;146.37;;;;;;;;;;5073891;28;20222;-47
2022/03/09 11:37:39;;;;;;;359.17;129.03;;;;;;;;;;5073557;28;20315;-46
2022/03/09 11:40:06;;;;;;;439.73;137.77;;;;;;;;;;5073877;28;20223;-46
2022/03/09 11:42:38;;;;;;;285.53;93.43;;;;;;;;;;5072341;28;20255;-48
2022/03/09 11:45:15;;;;;;;181.80;60.97;;;;;;;;;;5065981;28;20235;-47
2022/03/09 11:47:56;;;;;;;131.17;40.30;;;;;;;;;;5055492;28;20254;-45
2022/03/09 11:50:24;;;;;;;116.13;34.73;;;;;;;;;;5053345;28;20242;-46
2022/03/09 11:53:03;;;;;;;97.30;31.17;;;;;;;;;;5053195;28;20252;-46
2022/03/09 11:55:32;;;;;;;289.67;83.00;;;;;;;;;;5053299;28;20512;-46
2022/03/09 11:58:09;;;;;;;253.47;73.03;;;;;;;;;;5058940;28;20289;-48
2022/03/09 12:00:38;;;;;;;317.67;89.47;;;;;;;;;;5067748;28;20231;-47
2022/03/09 12:03:06;;;;;;;170.10;52.37;;;;;;;;;;5055863;28;20282;-47
2022/03/09 12:05:38;;;;;;;288.67;113.63;;;;;;;;;;5036124;28;20612;-45
2022/03/09 12:08:12;;;;;;;118.60;53.00;;;;;;;;;;5052639;28;20280;-47
2022/03/09 12:10:55;;;;;;;99.70;33.73;;;;;;;;;;5053001;28;20239;-47
2022/03/09 12:13:31;;;;;;;114.83;37.40;;;;;;;;;;5052853;28;20568;-46
2022/03/09 12:16:12;;;;;;;26.03;12.83;;;;;;;;;;5053102;28;20235;-50
2022/03/09 12:19:06;;;;;;;19.20;10.23;;;;;;;;;;5035663;28;20247;-46
2022/03/09 12:21:40;;;;;;;19.40;11.13;;;;;;;;;;5053379;28;20254;-46
2022/03/09 12:24:13;;;;;;;21.17;11.90;;;;;;;;;;5052736;28;20224;-46
2022/03/09 12:26:55;;;;;;;146.67;53.20;;;;;;;;;;5052988;28;20219;-46
2022/03/09 12:29:28;;;;;;;51.77;23.90;;;;;;;;;;5053102;28;20247;-52
2022/03/09 12:32:02;;;;;;;86.40;34.53;;;;;;;;;;5052469;28;20270;-49
2022/03/09 12:34:32;;;;;;;17.77;10.73;;;;;;;;;;5061852;28;20609;-47
2022/03/09 12:37:01;;;;;;;15.53;10.37;;;;;;;;;;5056164;28;20251;-48
2022/03/09 12:39:28;;;;;;;17.60;10.77;;;;;;;;;;5052556;28;20720;-48
2022/03/09 12:41:58;;;;;;;16.40;10.57;;;;;;;;;;5060030;28;20740;-46
2022/03/09 12:44:28;;;;;;;18.67;11.07;;;;;;;;;;5072977;28;20223;-49
2022/03/09 12:47:18;;;;;;;25.70;13.37;;;;;;;;;;5072494;28;20243;-49
2022/03/09 12:49:47;;;;;;;18.23;9.10;;;;;;;;;;5077004;28;20651;-46
2022/03/09 12:52:16;;;;;;;15.40;9.90;;;;;;;;;;5075845;28;20696;-46
2022/03/09 12:54:51;;;;;;;16.00;10.17;;;;;;;;;;5076165;28;20231;-47
2022/03/09 12:57:21;;;;;;;16.23;10.10;;;;;;;;;;5073911;28;20226;-47
2022/03/09 12:59:59;;;;;;;19.57;11.67;;;;;;;;;;5068152;28;20261;-47
2022/03/09 13:02:46;;;;;;;17.27;11.00;;;;;;;;;;5058581;28;20663;-47
2022/03/09 13:05:25;;;;;;;19.83;10.60;;;;;;;;;;5056345;28;20641;-47
2022/03/09 13:07:56;;;;;;;15.50;9.07;;;;;;;;;;5056475;28;20310;-46
2022/03/09 13:10:25;;;;;;;16.27;10.40;;;;;;;;;;5055663;28;20745;-47
2022/03/09 13:12:56;;;;;;;15.13;9.23;;;;;;;;;;5054586;28;20613;-46
2022/03/09 13:15:40;;;;;;;15.37;10.23;;;;;;;;;;5076219;28;20631;-46
2022/03/09 13:18:10;;;;;;;17.23;10.60;;;;;;;;;;5075911;28;20314;-45
2022/03/09 13:20:41;;;;;;;14.67;9.70;;;;;;;;;;5076353;28;20231;-46
2022/03/09 13:23:27;;;;;;;14.93;9.07;;;;;;;;;;5058637;28;20227;-45
2022/03/09 13:25:55;;;;;;;17.00;9.70;;;;;;;;;;5068774;28;20250;-46
2022/03/09 13:28:29;;;;;;;18.23;9.43;;;;;;;;;;5066802;28;20215;-52
2022/03/09 13:30:56;;;;;;;18.40;9.27;;;;;;;;;;5071194;28;20362;-51
2022/03/09 13:33:24;;;;;;;14.43;9.43;;;;;;;;;;5074104;28;20230;-50
2022/03/09 13:35:52;;;;;;;15.63;10.00;;;;;;;;;;5074763;28;20674;-47
2022/03/09 13:38:25;;;;;;;16.37;9.77;;;;;;;;;;5068477;28;20263;-48
2022/03/09 13:41:00;;;;;;;22.10;9.63;;;;;;;;;;5072316;28;20325;-49
2022/03/09 13:43:29;;;;;;;15.47;8.67;;;;;;;;;;5056123;28;20218;-47
2022/03/09 13:45:56;;;;;;;13.47;9.33;;;;;;;;;;5074643;28;20231;-47
2022/03/09 13:48:25;;;;;;;14.63;8.87;;;;;;;;;;5056682;28;20701;-50
2022/03/09 13:50:59;;;;;;;14.93;9.70;;;;;;;;;;5074766;28;20269;-48
2022/03/09 13:53:35;;;;;;;15.70;9.10;;;;;;;;;;5071895;28;20218;-47
2022/03/09 13:56:14;;;;;;;16.10;9.77;;;;;;;;;;5073906;28;20661;-51
2022/03/09 13:58:42;;;;;;;16.07;9.80;;;;;;;;;;5069687;28;20247;-47
2022/03/09 14:01:12;;;;;;;16.27;9.80;;;;;;;;;;5073598;28;20218;-47
2022/03/09 14:03:52;;;;;;;15.50;10.00;;;;;;;;;;5073867;28;20322;-49
2022/03/09 14:06:22;;;;;;;17.33;10.40;;;;;;;;;;5072975;28;20239;-46
2022/03/09 14:08:52;;;;;;;17.83;10.77;;;;;;;;;;5074049;28;20215;-46
2022/03/09 14:11:21;;;;;;;23.50;11.17;;;;;;;;;;5074334;28;20582;-47
2022/03/09 14:14:04;;;;;;;24.57;13.80;;;;;;;;;;5072261;28;20235;-47
2022/03/09 14:16:48;;;;;;;21.63;12.47;;;;;;;;;;5072314;28;20549;-47
2022/03/09 14:19:20;;;;;;;20.60;10.97;;;;;;;;;;5071731;28;20606;-46
2022/03/09 14:21:51;;;;;;;16.53;9.47;;;;;;;;;;5074382;28;20226;-45
2022/03/09 14:24:19;;;;;;;18.13;10.87;;;;;;;;;;5072990;28;20219;-45
2022/03/09 14:26:48;;;;;;;15.53;10.00;;;;;;;;;;5074214;28;20308;-45
2022/03/09 14:29:16;;;;;;;16.10;9.60;;;;;;;;;;5073434;28;20247;-47
2022/03/09 14:31:45;;;;;;;16.30;9.83;;;;;;;;;;5073752;28;20257;-47
2022/03/09 14:34:13;;;;;;;17.60;10.00;;;;;;;;;;5073161;28;20219;-46
2022/03/09 14:36:43;;;;;;;17.77;10.77;;;;;;;;;;5056152;28;20223;-46